Las Vegas, Nevada
Current Conditions -  °F | °C
As of 4:56 PM on Tuesday 27 Jan 2015 (Local Time) from KLAS Reporting Station
Scattered Clouds Scattered Clouds  
Wind Chill: 60°   Ceiling: Unl
Heat Index: 60°   Visibility: 10mi
Dew Point: 49°   Wind: 3mph
Humidity: 67%   Direction: 140°SE
Pressure: 30.15"   Gusts: NA
Location:  36.17°N, 115.13°W
Report Text: KLAS 280056Z 14003KT 10SM SCT050 SCT250 16/09 A3015 RMK AO2 SLP202 T01560094 $
Loading
Personal Weather Stations






























Interactive Weather Map New forecast layout! Learn more

10-Day Weather Forecast

Advertisements
Track Severe Weather on mobile